arxmliv
arxmliv build tool
 
KWARC group
LaTeXML
About
   
 

Detailed info

Back to Homepage

List of missing_macros

No. Date Filename num_warningnum_errornum_xmargok_xmargnum_xmathok_xmathMissing macros
95801 2013-03-12 15:53:33 /0803/0803.2460 1320000[\appendices]; 2 missing files[IEEEtran.cls, colordvi.sty].
95802 2013-03-12 15:52:53 /0803/0803.2466 1230000[\normbf, \captionb, {keywords}, \submitb, \titlehead, \References, \degr, {authorl}, \titleb, \authorb, \addressb, \sectionb, \arcsec, \hhuad, \lstrut, \refb, \captionr, \resthead, \tablerule, {addressl}, {summary}, \norm]; 1 missing file[baltlat6.sty].
95803 2013-03-12 15:52:47 /0803/0803.2461 1220000[\normbf, \captionb, {keywords}, \submitb, \titlehead, \References, \degr, {authorl}, \titleb, \authorb, \addressb, \sectionb, \hstrut, \lstrut, \refb, \smallbf, \captionc, \resthead, \tablerule, {addressl}, {summary}]; 1 missing file[baltlat6.sty].
95804 2013-03-12 15:52:43 /0803/0803.2465 030000[\extrasenglish, \dateenglish, \captionsenglish].
95805 2013-03-12 15:52:21 /0803/0803.2386 28480000[{definition}, {theorem}, {corollary}].
95806 2013-03-12 15:51:38 /0803/0803.2443 670000[\maketitlebcp, \address, \abbrevauthors, \mathclass, \abbrevtitle, \keywords]; 2 missing files[bcp80.cls, colordvi.sty].
95807 2013-03-12 15:51:08 /0803/0803.2429 1250000[\drawvector, \drawframebox, \drawpath, \drawcenteredtext, \drawarc].
95808 2013-03-12 15:50:54 /0803/0803.2422 410000[\slashed].
95809 2013-03-12 15:50:44 /0803/0803.2432 060000[\mnras, \apjs, \apj, \aj, \apjl]; 1 missing file[aas_macros.sty].
95810 2013-03-12 15:50:15 /0803/0803.2409 990000[\varmathbb].
95811 2013-03-12 15:50:10 /0803/0803.2392 13110000[\alguntil, \algrepeat, \algname, \alginout, {algtab*}, {algorithm}, \apprge, \apprle].
95812 2013-03-12 15:49:56 /0803/0803.2414 150000[\htmladdnormallink].
95813 2013-03-12 15:49:41 /0803/0803.2400 140000[\kword, \abst, \inst]; 1 missing file[endfloat.sty].
95814 2013-03-12 15:49:33 /0803/0803.2361 11060000[\½, Align, \xymatrix, \chaptermark, \ar]; 1 missing file[xy.sty].
95815 2013-03-12 15:49:25 /0803/0803.2405 2100000[\pacs, \shortauthor, \institute, \onefigure, \acknowledgments, \shorttitle, \email, \Name, \REVIEW, \etal]; 1 missing file[epl2.cls].
95816 2013-03-12 15:49:24 /0803/0803.2396 030000[\extrasenglish, \dateenglish, \captionsenglish].
95817 2013-03-12 15:49:20 /0803/0803.2393 2750000[\copyrightyear, \SetInternalRegister, {theacknowledgments}, \layoutstyle, \classification].
95818 2013-03-12 15:49:05 /0803/0803.2381 8200000[Align, \xymatrix, \ar]; 1 missing file[xy.sty].
95819 2013-03-12 15:48:55 /0803/0803.2383 110000[\mathinner].
95820 2013-03-12 15:48:55 /0803/0803.2384 780000[\affil, \draft, \Received, \Accepted, \email, \FigureFile, \SetRunningHead, \KeyWords]; 1 missing file[pasj00.cls].
95821 2013-03-12 15:48:52 /0803/0803.2366 6950000[Align, \xyoption, \xymatrix, \ar]; 1 missing file[xy.sty].
95822 2013-03-12 15:48:50 /0803/0803.2360 1170000[\ArrowLine, \Text, \Line, \SetWidth, \SetScale, \Gluon, \DashLine].
95823 2013-03-12 15:48:40 /0803/0803.2346 49150000[\tg, \Russian, {otherlanguage}, \subjclass, \email, \keywords]; 1 missing file[ragged2e.sty].
95824 2013-03-12 15:48:32 /0803/0803.2371 9120000[{lemma}, {keywords}, {theorem}, {corollary}, \mathinner, {proof}, \thetheorem, {AMSMOS}]; 1 missing file[siam.sty].
95825 2013-03-12 15:48:11 /0803/0803.2356 41370000[Align, \xymatrix, \ar]; 1 missing file[xy.sty].
95826 2013-03-12 15:48:05 /0803/0803.2375 340000[\title, \and, \thanks, \author].
95827 2013-03-12 15:47:54 /0803/0803.2326 27940000[Align, \xymatrix, \ar]; 1 missing file[xy.sty].
95828 2013-03-12 15:47:53 /0803/0803.2357 1010000[\@end@institute].
95829 2013-03-12 15:47:32 /0803/0803.2337 11030000[{keywords}, \IEEEmembership, {proof}]; 1 missing file[IEEEtran.cls].
95830 2013-03-12 15:46:48 /0803/0803.2327 5440000[Align, \xymatrix, \ar]; 1 missing file[xy.sty].
95831 2013-03-12 15:45:43 /0803/0803.2344 1130000[\includegraphics, \institute]; 1 missing file[texnames.sty].
95832 2013-03-12 15:45:37 /0803/0803.2345 950000[\includegraphics, \mathbb, \url, \institute]; 1 missing file[texnames.sty].
95833 2013-03-12 15:45:22 /0803/0803.2320 16120000[Align, \xymatrix, \ar]; 9 missing files[xycurve.sty, xymatrix.sty, xyline.sty, xyarrow.sty, xycmtip.sty, xycolor.sty, xyrotate.sty, xyframe.sty, xygraph.sty].
95834 2013-03-12 15:44:54 /0803/0803.2301 4050000[Align, \xymatrix, \ar]; 1 missing file[xy.sty].
95835 2013-03-12 15:44:44 /0803/0803.2323 740000[\al@[, \al@quinn1993,walker1996,huang1997,velazquez1999, \scalefont, \al@walker1996,huang1997,
95836 2013-03-12 15:44:10 /0803/0803.2325 020000[{sidewaystable}].
95837 2013-03-12 15:43:59 /0803/0803.2311 13740000[Align, \Set, \young, \tableau].
95838 2013-03-12 15:43:51 /0803/0803.2300 3690000[\prt, \eps, \la, \th, \al, \ie, \Eq, \cL, \Th].
95839 2013-03-12 15:43:48 /0803/0803.2305 1110000[\infer].
95840 2013-03-12 15:43:23 /0803/0803.2045 30310000[\psfrag].
95841 2013-03-12 15:43:19 /0803/0803.2313 070000[\sodauthor, \rauthor, \address, \sodtitle, \dates, \PACS, \rtitle].
95842 2013-03-12 15:43:08 /0803/0803.2297 4100000[\mathbb, \theoremstyle, \arrow, \keywords, \volume, \address, \email, \node, {proof}, {diagram}]; 1 missing file[jgokova.cls].
95843 2013-03-12 15:42:53 /0803/0803.2260 41780000[\xmapsto, \shadowbox].
95844 2013-03-12 15:42:36 /0803/0803.2286 980000[Align, \xymatrix, \ar]; 1 missing file[xy.sty].
95845 2013-03-12 15:42:30 /0803/0803.2304 1420000[\fancyplain, \nouppercase].
95846 2013-03-12 15:42:14 /0803/0803.2285 210000[\subfloat].
95847 2013-03-12 15:42:03 /0803/0803.2290 1130000[{subequations}, \now]; 1 missing file[time.sty].
95848 2013-03-12 15:41:41 /0803/0803.2268 730000[{keywords}, \affiliation]; 1 missing file[ar.sty].
95849 2013-03-12 15:41:03 /0803/0803.2283 10100000[{theorem}, \inst, \institute, {definition}, \email, {corollary}, \titlerunning, {proof}, \mainmatter, \authorrunning]; 1 missing file[maf2008.cls].
95850 2013-03-12 15:40:45 /0803/0803.2267 0340000[\nmaryland, \nroma, \ntunl, \nclermont, \nkharkov, \ncaltech, \nregina, \ntemple, \nrutgers, \nker, \nkit, \nchungham, \ninfntor, \ninfnp, \nunh, \nhampton, \ninfn, \nuva, \ntohoku, \niftp, \nsaclay, \nmit, \nprinceton, \ninfnr, \njlab, \nodu, \nperu, \n
95851 2013-03-12 15:40:39 /0803/0803.2262 540000[{proof}]; 1 missing file[IEEEtran.cls].
95852 2013-03-12 15:40:24 /0803/0803.2259 13710000[\psfrag].
95853 2013-03-12 15:40:21 /0803/0803.2257 16190000[\IEEEPARstart, \xymatrix, \ifCLASSOPTIONcaptionsoff, \appendices, {IEEEkeywords}, Align, {IEEEproof}, \ar]; 3 missing files[IEEEtran.cls, xy.sty, newalg.sty].
95854 2013-03-12 15:40:05 /0803/0803.2255 030000[\extrasenglish, \dateenglish, \captionsenglish].
95855 2013-03-12 15:39:59 /0803/0803.2261 1140000[\opencite, \citeyear, \surname, \institute, \runningtitle, {opening}, {article}, {acks}, \keywords, \sep, \runningauthor, \citeauthor, \inlinecite]; 2 missing files[spr-sola-addons.sty, SolarPhysics.cls].
95856 2013-03-12 15:39:56 /0803/0803.2258 320000[\theendnotes, \endnote].
95857 2013-03-12 15:39:39 /0803/0803.2248 2440000[\iddots, \subjclass, \email, \keywords].
95858 2013-03-12 15:39:24 /0803/0803.2252 3610000[\psfrag].
95859 2013-03-12 15:39:06 /0803/0803.2234 1110000[\theappendix].
95860 2013-03-12 15:39:04 /0803/0803.2231 2660000[\GCirc, \Vertex, \Line, \LongArrow]; 1 missing file[afterpage.sty].
95861 2013-03-12 15:38:53 /0803/0803.2253 030000[\extrasenglish, \dateenglish, \captionsenglish].
95862 2013-03-12 15:38:39 /0803/0803.2213 2150000[\psfrag]; 1 missing file[oldgerm.sty].
95863 2013-03-12 15:38:19 /0803/0803.2240 2240000[\ReceivedDate, \tablecols, \tabnotemark, \extrasenglish, \SetYear, \adjustfinalcols, \shorttitle, \toprule, \bottomrule, \indexauthor, \resumen, \midrule, \shortauthor, \tabnotetext, \altaffilmark, \dateenglish, \listofauthors, \addkeyword, \altaffiltext
95864 2013-03-12 15:38:10 /0803/0803.2076 476260000[Align, \xymatrix, \ar]; 1 missing file[xy.sty].
95865 2013-03-12 15:38:03 /0803/0803.2232 370000[\theappendix].
95866 2013-03-12 15:37:48 /0803/0803.2228 330000[\address, \abstracts, \refcite]; 1 missing file[wsmod-9x6.cls].
95867 2013-03-12 15:37:29 /0803/0803.2217 210000[\citeauthoryear].
95868 2013-03-12 15:37:12 /0803/0803.2212 98110000[\psset, \toappear, \affaddr, \TR, \numberofauthors, \alignauthor, \pstree, \includegraphics]; 2 missing files[pst-tree.sty, vldb.cls].
95869 2013-03-12 15:37:07 /0803/0803.2211 1530000[{keywords}, {proof}, \appendices]; 1 missing file[IEEEtran.cls].
95870 2013-03-12 15:36:22 /0803/0803.2180 43140000[Align, \xymatrix, \ar]; 1 missing file[xy.sty].
95871 2013-03-12 15:35:54 /0803/0803.2174 680000[\conferenceinfo, \affaddr, \numberofauthors, \alignauthor, \crdata, \email, \CopyrightYear, {proof}].
95872 2013-03-12 15:35:50 /0803/0803.2188 2160000[\yng, \young, \geometry].
95873 2013-03-12 15:35:35 /0803/0803.2173 8720000[\printfigures]; 1 missing file[figcaps.sty].
95874 2013-03-12 15:35:23 /0803/0803.2161 8680000[\Vertex, \Text, \CCirc, \SetWidth, \GlueArc, \DashLine, \geometry, \DashArrowLine].
95875 2013-03-12 15:35:06 /0803/0803.2165 390000[\midrule, \toprule, \bottomrule].
95876 2013-03-12 15:35:03 /0803/0803.2105 40850000[Align, \xymatrix, \ar]; 2 missing files[xy.sty, pslatex.sty].
95877 2013-03-12 15:34:21 /0803/0803.2170 310000[\psfrag].
95878 2013-03-12 15:34:18 /0803/0803.2150 1240000[Align, \xymatrix, \ar]; 1 missing file[xy.sty].
95879 2013-03-12 15:34:17 /0803/0803.2168 36120000[\comby, \catchline, \tbl, \refcite, \keywords, \colrule, {history}, \botrule, \revised, \toprule, \received]; 1 missing file[ws.sty].
95880 2013-03-12 15:33:53 /0803/0803.2129 11170000[\THCom, \RRresume, \titlehead, \RRprojet, \RRtitle, \makeRR, \RRetitle, \RRNo, \RRauthor, \RRtheme, \authorhead, \URSophia, \RRabstract, \RRdate, \RRmotcle, \RRkeyword]; 1 missing file[RR.sty].
95881 2013-03-12 15:33:52 /0803/0803.2156 560000[\pacs, \inst, \shorttitle, \shortauthor, \institute, \etal]; 1 missing file[epl2.cls].
95882 2013-03-12 15:33:40 /0803/0803.2122 4520000[\theappendix].
95883 2013-03-12 15:33:13 /0803/0803.2148 1540000[\expa]; 3 missing files[afterpage.sty, spr-astr-addons.sty, experimental.sty].
95884 2013-03-12 15:32:47 /0803/0803.2135 530000[\ellipse, \blacken, \path].
95885 2013-03-12 15:32:44 /0803/0803.2123 230000[Align, \xymatrix, \ar].
95886 2013-03-12 15:32:38 /0803/0803.2128 1210000[\psfrag].
95887 2013-03-12 15:32:32 /0803/0803.2137 060000[\met, \gev, \ipb, \ppbar, \etal]; 1 missing file[d0_style.sty].
95888 2013-03-12 15:31:56 /0803/0803.2114 1340000[\extrasenglish, \geometry, \dateenglish, \captionsenglish].
95889 2013-03-12 15:30:59 /0803/0803.2096 1910000[@ ].
95890 2013-03-12 15:30:29 /0803/0803.2060 21120000[{keywords}, \theoremstyle, \xymatrix, Align, \xyoption, {classification}, {proof}, \UsePSspecials, \contact, \ar]; 2 missing files[emsprocart.cls, xy.sty].
95891 2013-03-12 15:30:25 /0803/0803.2093 010000[\FloatBarrier].
95892 2013-03-12 15:30:24 /0803/0803.2052 1250000[\Sha, Align, \xymatrix, \ar]; 1 missing file[xy.sty].
95893 2013-03-12 15:30:14 /0803/0803.2063 1340000[\theappendix, \ocis, \address, \email].
95894 2013-03-12 15:29:33 /0803/0803.1989 41280000[\Line, \Oval, \Text, \SetWidth, \SetScale, \GOval, \DashLine, \Gluon].
95895 2013-03-12 15:29:31 /0803/0803.2043 3510000[\geometry].
95896 2013-03-12 15:29:24 /0803/0803.2070 19890000[\misc, \fax, \subfigure, \affiliation, \phone, \address, \email, {paper}, {authors}, {align}, \city, \ack, \mathbb, {align*}, \country, \includegraphics, Align, \psection, {piersabstract}, \postalcode, \nomakeauthor, \autoref]; 1 missing file[piers.sty].
95897 2013-03-12 15:29:11 /0803/0803.2071 020000[\textit, \mathfrak].
95898 2013-03-12 15:29:10 /0803/0803.2062 360000[\hair, \pinlabel, \endlabellist, \labellist, \geometry]; 1 missing file[pinlabel.sty].
95899 2013-03-12 15:29:08 /0803/0803.2055 030000[\extrasenglish, \dateenglish, \captionsenglish].
95900 2013-03-12 15:28:35 /0803/0803.1996 14660000[\theappendix, Align, \xymatrix, \ar]; 2 missing files[ot2.fontmap, xy.sty].
95901 2013-03-12 15:28:33 /0803/0803.2048 30470000[\kh, \IR, \kx, \gothb, \ky, \rk, \delbar, \gothg, \gothh, \Ann, {lem}, {cor}, \ku, \IC, {sideways}, \ko, \xymatrix, \isom, Align, \del, \tensor, \im, \restr, {theo}, \gotha, {custom}, \kz, \id, \kb, \ar, \kc, \codim, \IQ, \inverse, \pf, {rem}, \IP]; 1 mi
95902 2013-03-12 15:28:29 /0803/0803.2026 7520000[\dashline]; 1 missing file[xy.sty].
95903 2013-03-12 15:28:25 /0803/0803.2031 2850000[Align, \xymatrix, \geometry, \ar]; 1 missing file[xy.sty].
95904 2013-03-12 15:28:14 /0803/0803.2047 1330000[\rrbracket, \llbracket]; 1 missing file[xy.sty].
95905 2013-03-12 15:28:06 /0803/0803.2050 6220000[\afterpage]; 1 missing file[afterpage.sty].
95906 2013-03-12 15:27:39 /0803/0803.2051 6200000[\tablerefs, \colhead, \tablenotetext, \nodata, \tablehead, \tablewidth, {deluxetable}, Align, \startdata, \tablecaption, \tablenotemark, \enddata]; 1 missing file[deluxetable.sty].
95907 2013-03-12 15:27:02 /0803/0803.2020 6660000[\sun, \affil, {keywords}, \plotone, \epsscale]; 1 missing file[emulapj.sty].
95908 2013-03-12 15:26:46 /0803/0803.2021 210000[\theappendix].
95909 2013-03-12 15:26:45 /0803/0803.2028 230000[\geometry].
95910 2013-03-12 15:26:20 /0803/0803.2024 020000[\citenum]; 1 missing file[achemso.sty].
95911 2013-03-12 15:26:02 /0803/0803.2018 420000[\astrosun, \psfrag].
95912 2013-03-12 15:26:01 /0803/0803.2010 230000[\sameaddress, \address, \runningtitle]; 1 missing file[eas.cls].
95913 2013-03-12 15:25:46 /0803/0803.1998 030000[\extrasenglish, \dateenglish, \captionsenglish].
95914 2013-03-12 15:25:39 /0803/0803.1992 4220000[\authorblockN, \authorblockA]; 1 missing file[IEEEtran.cls].
95915 2013-03-12 15:24:56 /0803/0803.1991 1810000[\citeauthoryear].
95916 2013-03-12 15:24:47 /0803/0803.1978 9420000[\xyoption]; 1 missing file[xy.sty].
95917 2013-03-12 15:24:33 /0803/0803.1973 780000[\ccode, \colrule, \psfig, \botrule, \toprule, \tbl, \keywords]; 1 missing file[ws.sty].
95918 2013-03-12 15:24:25 /0803/0803.1982 310000[\theappendix].
95919 2013-03-12 15:24:07 /0803/0803.1974 030000[\affil, \acknowledgements]; 1 missing file[msf07.sty].
95920 2013-03-12 15:23:49 /0803/0803.1964 1690000[\editors, \affiliation, \keywords, \volume, \firstsection, \pagerange, \jname, \pubyear, \etal]; 1 missing file[iaus.cls].
95921 2013-03-12 15:23:48 /0803/0803.1763 178360000[Align, {xy}, \xymatrix, \crv, \ar, \xygraph]; 1 missing file[xy.sty].
95922 2013-03-12 15:23:47 /0803/0803.1954 2510000[\theappendix].
95923 2013-03-12 15:23:16 /0803/0803.1945 1710000[\cortext].
95924 2013-03-12 15:23:08 /0803/0803.1946 2510000[\Circle].
95925 2013-03-12 15:22:33 /0803/0803.1949 810000[\slashed].
95926 2013-03-12 15:22:30 /0803/0803.1947 010000[\theappendix].
95927 2013-03-12 15:22:22 /0803/0803.1929 730000[{theacknowledgments}, \layoutstyle, \classification].
95928 2013-03-12 15:22:18 /0803/0803.1928 710000[\mathds].
95929 2013-03-12 15:22:03 /0803/0803.1921 860000[\pacs, \inst, \shortauthor, \institute, \etal]; 2 missing files[epl2.cls, capt-of.sty].
95930 2013-03-12 15:21:56 /0803/0803.1907 020000[\theappendix]; 1 missing file[afterpage.sty].
95931 2013-03-12 15:21:49 /0803/0803.1926 030000[\hlstd, \hlstr, \hlkwa].
95932 2013-03-12 15:21:47 /0803/0803.1908 220000[\authorblockN, \authorblockA].
95933 2013-03-12 15:21:47 /0803/0803.1923 040000[\extrasenglish, {comment}, \dateenglish, \captionsenglish].
95934 2013-03-12 15:21:31 /0803/0803.1916 730000[\kword, \abst, \inst].
95935 2013-03-12 15:21:04 /0803/0803.1887 030000[\extrasenglish, \dateenglish, \captionsenglish].
95936 2013-03-12 15:21:02 /0803/0803.1886 12110000[\Book, \pacs, \inst, \institute, \acknowledgments, \includegraphics, \Publ, \Name, \Vol, \Year, \REVIEW]; 1 missing file[epl2.cls].
95937 2013-03-12 15:20:43 /0803/0803.1860 040000[\title, \and, \thanks, \author].
95938 2013-03-12 15:20:30 /0803/0803.1874 7220000[\xymatrix, \ar]; 1 missing file[xy.sty].
95939 2013-03-12 15:20:29 /0803/0803.1883 1140000[\RCSdate, \RCS]; 2 missing files[rcs.sty, xy.sty].
95940 2013-03-12 15:20:15 /0803/0803.1863 2010000[\smaller].
95941 2013-03-12 15:20:08 /0803/0803.1867 130000[\psfrag, \psfragscanon]; 1 missing file[xy.sty].
95942 2013-03-12 15:20:07 /0803/0803.1882 310000[\slashed].
95943 2013-03-12 15:19:18 /0803/0803.1872 030000[{keywords}, \psfig]; 1 missing file[mn0.sty].
95944 2013-03-12 15:19:14 /0803/0803.1857 1920000[\theappendix]; 1 missing file[apjfonts.sty].
95945 2013-03-12 15:18:45 /0803/0803.1845 920000[\geometry].
95946 2013-03-12 15:18:39 /0803/0803.1841 790000[{thrm}, \runningtitle, \keywords, \address, \email, \subjclass, {rmrk}, {proof}, {dfntn}]; 1 missing file[ita.cls].
95947 2013-03-12 15:18:32 /0803/0803.1830 13640000[{keywords}, \address, \issue, \runninghead]; 1 missing file[fundam.cls].
95948 2013-03-12 15:18:21 /0803/0803.1837 0100000[\sun, \affil, \mnras, \apj, \plotone, \citep, \citet, \apjl, \acknowledgements]; 1 missing file[asp2006.sty].
95949 2013-03-12 15:18:13 /0803/0803.1781 85110000[\thm@postskip, \thm@preskip, \geometry].
95950 2013-03-12 15:18:12 /0803/0803.1825 310000[\mathds].
95951 2013-03-12 15:17:57 /0803/0803.1807 860000[Align, \address, \xymatrix, \ar, \name]; 1 missing file[xy.sty].
95952 2013-03-12 15:17:56 /0803/0803.1821 2490000[\theappendix]; 2 missing files[afterpage.sty, aalongtable.sty].
95953 2013-03-12 15:17:15 /0803/0803.1824 1130000[\Abstract, \ArticleName, \ShortArticleName, \FirstPageHeading, \Address, \pdfbookmark, \LastPageEnding, \Classification, \ArticleDates, \Author, \Email, \AuthorNameForHeading, \Keywords].
95954 2013-03-12 15:17:02 /0803/0803.1817 110000[\theorembodyfont].
95955 2013-03-12 15:16:23 /0803/0803.1803 0150000[\mnras, \apjs, \apj, \citep, \citet, \altaffiltext, \apjl, \altaffilmark]; 1 missing file[asp2006.sty].
95956 2013-03-12 15:16:21 /0803/0803.1810 320000[\ssmall]; 1 missing file[moresize.sty].
95957 2013-03-12 15:16:17 /0803/0803.1783 3280000[\thm@postskip, \thm@preskip].
95958 2013-03-12 15:15:53 /0803/0803.1796 050000[\affil, \session, \shorttitle, \shortauthor]; 1 missing file[xrb2007.sty].
95959 2013-03-12 15:15:31 /0803/0803.1791 1050000[\theappendix, \includegraphics, \pacs, \email, \affiliation]; 1 missing file[jasatex.cls].
95960 2013-03-12 15:15:26 /0803/0803.1787 1610000[\psfrag].
95961 2013-03-12 15:15:25 /0803/0803.1768 4810000[\theappendix].
95962 2013-03-12 15:15:20 /0803/0803.1785 110000[\na].
95963 2013-03-12 15:15:10 /0803/0803.1780 37120000[\thm@postskip, \thm@preskip].
95964 2013-03-12 15:15:09 /0803/0803.1776 7340000[Align, \xymatrix, \ar]; 1 missing file[xy.sty].
95965 2013-03-12 15:14:47 /0803/0803.1766 4620000[\psfrag, \psfragscanon].
95966 2013-03-12 15:14:04 /0803/0803.1764 1180000[\THCom, \RRresume, \titlehead, \RRprojet, \RRtitle, \makeRR, \RRetitle, \thanksref, \RRNo, \RRauthor, \RRtheme, \authorhead, \RRabstract, \RRdate, \URRhoneAlpes, \RRmotcle, \RRkeyword]; 1 missing file[RR.sty].
95967 2013-03-12 15:13:56 /0803/0803.1747 34550000[\save, \xymatrix, \xy, \frm, \POS, \endxy, Align, \restore, \dir, \ar]; 1 missing file[xy.sty].
95968 2013-03-12 15:13:43 /0803/0803.1765 1260000[\includegraphics, \ShortTitle, \email, \FullConference, \resizebox, \speaker]; 1 missing file[PoS.cls].
95969 2013-03-12 15:13:21 /0803/0803.1685 88730000[\xymatrix, \ar]; 1 missing file[xy.sty].
95970 2013-03-12 15:13:07 /0803/0803.1750 160000[\affil, \session, \shorttitle, \shortauthor, {acknowledgements}]; 1 missing file[xrb2007.sty].
95971 2013-03-12 15:12:59 /0803/0803.1741 4210000[\theappendix].
95972 2013-03-12 15:12:59 /0803/0803.1744 1750000[\ShortTitle, \email, \PACS, \FullConference, \speaker]; 1 missing file[PoS.cls].
95973 2013-03-12 15:12:56 /0803/0803.1735 250000[\affil, \session, \shorttitle, \shortauthor]; 1 missing file[xrb2007.sty].
95974 2013-03-12 15:12:26 /0803/0803.1732 1740000[Align, \xymatrix, \ar]; 1 missing file[xy.sty].
95975 2013-03-12 15:12:20 /0803/0803.1697 30140000[\conferenceinfo, \numberofauthors, \titlenote, \terms, \alignauthor, \keywords, {definition}, \crdata, \subtitle, {comment}, \CopyrightYear, \category, {proof}, \newdef].
95976 2013-03-12 15:12:06 /0803/0803.1725 160000[\affil, \session, \shorttitle, \citep, \shortauthor]; 1 missing file[xrb2007.sty].
95977 2013-03-12 15:11:36 /0803/0803.1713 020000[\affil]; 1 missing file[asp2006.sty].
95978 2013-03-12 15:11:28 /0803/0803.1686 2650000[\theappendix].
95979 2013-03-12 15:11:07 /0803/0803.1702 020000[\captionsfrancais]; 1 missing file[framed.sty].
95980 2013-03-12 15:10:46 /0803/0803.1678 83230000[{theorem}, \pdfbookmark, \LastPageEnding, \Classification, \ArticleDates, {remark}, \AuthorNameForHeading, {proposition}, \Abstract, \ArticleName, \ShortArticleName, \FirstPageHeading, \Address, \Author, \Email, {corollary}, \Keywords].
95981 2013-03-12 15:09:38 /0803/0803.1671 210000[\theappendix].
95982 2013-03-12 15:09:36 /0803/0803.1681 540000[Align, \xymatrix, \ar]; 1 missing file[xy.sty].
95983 2013-03-12 15:09:31 /0803/0803.1651 30150000[\Abstract, \ArticleName, {theorem}, \ShortArticleName, \FirstPageHeading, \Address, \pdfbookmark, \LastPageEnding, \Classification, \ArticleDates, \Author, \Email, {remark}, \AuthorNameForHeading, \Keywords].
95984 2013-03-12 15:09:09 /0803/0803.1668 10100000[\citeauthoryear, \citep, \citet]; 1 missing file[natbib2.sty].
95985 2013-03-12 15:08:01 /0803/0803.1639 15440000[Align, \xymatrix, \ar]; 1 missing file[xy.sty].
95986 2013-03-12 15:07:46 /0803/0803.1642 7460000[\dTo, \uTo, Align, \lTo, \SEpbk, \rTo, \ldTo, {diagram}].
95987 2013-03-12 15:07:35 /0803/0803.1641 67110000[\node, \arrow, {diagram}].
95988 2013-03-12 15:07:21 /0803/0803.1646 140000[\theappendix, \ocis, \address, \email].
95989 2013-03-12 15:07:09 /0803/0803.1648 020000[\includepdf]; 1 missing file[pdfpages.sty].
95990 2013-03-12 15:06:59 /0803/0803.1619 3130000[{acknowledgments}, \ls, \iffontfound, \affiliation, \ns, \volume, \firstsection, \pagerange, \checkfont, \pubyear]; 1 missing file[cupconf.cls].
95991 2013-03-12 15:06:47 /0803/0803.1623 070000[{sidewaysfigure*}].
95992 2013-03-12 15:06:38 /0803/0803.1605 28340000[\psfrag, {centering}]; 1 missing file[xy.sty].
95993 2013-03-12 15:06:30 /0803/0803.1620 170000[\ccode, \catchline, {history}, \revised, \keywords, \received]; 1 missing file[ws.sty].
95994 2013-03-12 15:06:25 /0803/0803.1628 40290000[{keywords}, {algorithm}, \citep, {codebox}, \RComment, \name, \If, \For, \email, \acks, \In, \id, \End, \Do, \firstpageno, \ForEach, \editor, \citealp, \Procname, \To, \includegraphics, \proc, \Return, \addr, \citet, \zi]; 2 missing files[jmlr2e.sty, clr
95995 2013-03-12 15:06:22 /0803/0803.1595 90290000[\psfrag].
95996 2013-03-12 15:06:22 /0803/0803.1610 21280000[\conferenceinfo, \affaddr, \numberofauthors, \terms, \alignauthor, \crdata, {comment}, \email, \CopyrightYear, \category, {proof}].
95997 2013-03-12 15:05:59 /0803/0803.1629 390000[\ccode, \catchline, \mathbb, {history}, \revised, \refcite, \keywords, \received]; 1 missing file[ws.sty].
95998 2013-03-12 15:05:56 /0803/0803.1631 130000[\authorinfo, \skiplinehalf, \keywords]; 1 missing file[spie.cls].
95999 2013-03-12 15:05:55 /0803/0803.1609 180000[\mnras, \apj, \prd, \apss, \apjl, \nat, \aap]; 1 missing file[aas_macros.sty].
96000 2013-03-12 15:05:09 /0803/0803.1602 2710000[\geometry].
<<< >>>

[0] [200] [400] [600] [800] [1000] [1200] [1400] [1600] [1800] [2000] [2200] [2400] [2600] [2800] [3000] [3200] [3400] [3600] [3800] [4000] [4200] [4400] [4600] [4800] [5000] [5200] [5400] [5600] [5800] [6000] [6200] [6400] [6600] [6800] [7000] [7200] [7400] [7600] [7800] [8000] [8200] [8400] [8600] [8800] [9000] [9200] [9400] [9600] [9800] [10000] [10200] [10400] [10600] [10800] [11000] [11200] [11400] [11600] [11800] [12000] [12200] [12400] [12600] [12800] [13000] [13200] [13400] [13600] [13800] [14000] [14200] [14400] [14600] [14800] [15000] [15200] [15400] [15600] [15800] [16000] [16200] [16400] [16600] [16800] [17000] [17200] [17400] [17600] [17800] [18000] [18200] [18400] [18600] [18800] [19000] [19200] [19400] [19600] [19800] [20000] [20200] [20400] [20600] [20800] [21000] [21200] [21400] [21600] [21800] [22000] [22200] [22400] [22600] [22800] [23000] [23200] [23400] [23600] [23800] [24000] [24200] [24400] [24600] [24800] [25000] [25200] [25400] [25600] [25800] [26000] [26200] [26400] [26600] [26800] [27000] [27200] [27400] [27600] [27800] [28000] [28200] [28400] [28600] [28800] [29000] [29200] [29400] [29600] [29800] [30000] [30200] [30400] [30600] [30800] [31000] [31200] [31400] [31600] [31800] [32000] [32200] [32400] [32600] [32800] [33000] [33200] [33400] [33600] [33800] [34000] [34200] [34400] [34600] [34800] [35000] [35200] [35400] [35600] [35800] [36000] [36200] [36400] [36600] [36800] [37000] [37200] [37400] [37600] [37800] [38000] [38200] [38400] [38600] [38800] [39000] [39200] [39400] [39600] [39800] [40000] [40200] [40400] [40600] [40800] [41000] [41200] [41400] [41600] [41800] [42000] [42200] [42400] [42600] [42800] [43000] [43200] [43400] [43600] [43800] [44000] [44200] [44400] [44600] [44800] [45000] [45200] [45400] [45600] [45800] [46000] [46200] [46400] [46600] [46800] [47000] [47200] [47400] [47600] [47800] [48000] [48200] [48400] [48600] [48800] [49000] [49200] [49400] [49600] [49800] [50000] [50200] [50400] [50600] [50800] [51000] [51200] [51400] [51600] [51800] [52000] [52200] [52400] [52600] [52800] [53000] [53200] [53400] [53600] [53800] [54000] [54200] [54400] [54600] [54800] [55000] [55200] [55400] [55600] [55800] [56000] [56200] [56400] [56600] [56800] [57000] [57200] [57400] [57600] [57800] [58000] [58200] [58400] [58600] [58800] [59000] [59200] [59400] [59600] [59800] [60000] [60200] [60400] [60600] [60800] [61000] [61200] [61400] [61600] [61800] [62000] [62200] [62400] [62600] [62800] [63000] [63200] [63400] [63600] [63800] [64000] [64200] [64400] [64600] [64800] [65000] [65200] [65400] [65600] [65800] [66000] [66200] [66400] [66600] [66800] [67000] [67200] [67400] [67600] [67800] [68000] [68200] [68400] [68600] [68800] [69000] [69200] [69400] [69600] [69800] [70000] [70200] [70400] [70600] [70800] [71000] [71200] [71400] [71600] [71800] [72000] [72200] [72400] [72600] [72800] [73000] [73200] [73400] [73600] [73800] [74000] [74200] [74400] [74600] [74800] [75000] [75200] [75400] [75600] [75800] [76000] [76200] [76400] [76600] [76800] [77000] [77200] [77400] [77600] [77800] [78000] [78200] [78400] [78600] [78800] [79000] [79200] [79400] [79600] [79800] [80000] [80200] [80400] [80600] [80800] [81000] [81200] [81400] [81600] [81800] [82000] [82200] [82400] [82600] [82800] [83000] [83200] [83400] [83600] [83800] [84000] [84200] [84400] [84600] [84800] [85000] [85200] [85400] [85600] [85800] [86000] [86200] [86400] [86600] [86800] [87000] [87200] [87400] [87600] [87800] [88000] [88200] [88400] [88600] [88800] [89000] [89200] [89400] [89600] [89800] [90000] [90200] [90400] [90600] [90800] [91000] [91200] [91400] [91600] [91800] [92000] [92200] [92400] [92600] [92800] [93000] [93200] [93400] [93600] [93800] [94000] [94200] [94400] [94600] [94800] [95000] [95200] [95400] [95600] [95800] [96000] [96200] [96400] [96600] [96800] [97000] [97200] [97400] [97600] [97800] [98000] [98200] [98400] [98600] [98800] [99000] [99200] [99400] [99600] [99800] [100000] [100200] [100400] [100600] [100800] [101000] [101200] [101400] [101600] [101800] [102000] [102200] [102400] [102600] [102800] [103000] [103200] [103400] [103600] [103800] [104000] [104200] [104400] [104600] [104800] [105000] [105200] [105400] [105600] [105800] [106000] [106200] [106400] [106600] [106800] [107000] [107200] [107400] [107600] [107800] [108000] [108200] [108400] [108600] [108800] [109000] [109200] [109400] [109600] [109800] [110000] [110200] [110400] [110600] [110800] [111000] [111200] [111400] [111600] [111800] [112000] [112200] [112400] [112600] [112800] [113000] [113200] [113400] [113600] [113800] [114000] [114200] [114400] [114600] [114800] [115000] [115200] [115400] [115600] [115800] [116000] [116200] [116400] [116600] [116800] [117000] [117200] [117400] [117600] [117800] [118000] [118200] [118400] [118600] [118800] [119000] [119200] [119400] [119600] [119800] [120000] [120200] [120400] [120600] [120800] [121000] [121200] [121400] [121600] [121800] [122000] [122200] [122400] [122600] [122800] [123000] [123200] [123400] [123600] [123800] [124000] [124200] [124400] [124600] [124800] [125000] [125200] [125400] [125600] [125800] [126000] [126200] [126400] [126600] [126800] [127000] [127200] [127400] [127600] [127800] [128000] [128200] [128400] [128600] [128800] [129000] [129200] [129400] [129600] [129800] [130000] [130200] [130400] [130600] [130800] [131000] [131200] [131400] [131600] [131800] [132000] [132200] [132400] [132600] [132800] [133000] [133200] [133400] [133600] [133800] [134000] [134200] [134400] [134600] [134800] [135000] [135200] [135400] [135600] [135800] [136000] [136200] [136400] [136600] [136800] [137000] [137200] [137400] [137600] [137800] [138000] [138200] [138400] [138600] [138800] [139000] [139200] [139400] [139600] [139800] [140000] [140200] [140400] [140600] [140800] [141000] [141200] [141400] [141600] [141800] [142000] [142200] [142400] [142600] [142800] [143000] [143200] [143400] [143600] [143800] [144000] [144200] [144400] [144600] [144800] [145000] [145200] [145400] [145600] [145800] [146000] [146200] [146400] [146600] [146800] [147000] [147200] [147400] [147600] [147800] [148000] [148200] [148400] [148600] [148800] [149000] [149200] [149400] [149600] [149800] [150000] [150200] [150400] [150600] [150800] [151000] [151200] [151400] [151600] [151800] [152000] [152200] [152400] [152600] [152800] [153000] [153200] [153400] [153600] [153800] [154000] [154200] [154400] [154600] [154800] [155000] [155200] [155400] [155600] [155800] [156000] [156200] [156400] [156600] [156800] [157000] [157200] [157400] [157600] [157800] [158000] [158200] [158400] [158600] [158800] [159000] [159200] [159400] [159600] [159800] [160000] [160200] [160400] [160600] [160800] [161000] [161200] [161400] [161600] [161800] [162000] [162200] [162400] [162600] [162800] [163000] [163200] [163400] [163600] [163800] [164000] [164200] [164400] [164600]
 
  The service has been written by
Heinrich Stamerjohanns